createdAt,value
2023-01-12T00:02:30.775Z,57.31
2023-01-12T00:06:32.426Z,57.59
2023-01-12T00:10:32.453Z,57.68
2023-01-12T00:14:32.503Z,57.44
2023-01-12T00:18:35.449Z,58.64
2023-01-12T00:22:35.517Z,58.00
2023-01-12T00:26:35.549Z,57.37
2023-01-12T00:30:35.607Z,58.03
2023-01-12T00:34:38.302Z,57.58
2023-01-12T00:38:39.036Z,57.38
2023-01-12T00:42:52.558Z,57.56
2023-01-12T00:46:52.957Z,57.47
2023-01-12T00:50:55.565Z,57.06
2023-01-12T00:54:55.584Z,57.24
2023-01-12T00:58:55.628Z,57.24
2023-01-12T01:02:55.773Z,56.09
2023-01-12T01:06:58.481Z,57.31
2023-01-12T01:11:04.963Z,56.69
2023-01-12T01:15:05.164Z,56.69
2023-01-12T01:19:06.067Z,56.22
2023-01-12T01:23:08.704Z,56.50
2023-01-12T01:27:08.743Z,56.19
2023-01-12T01:31:11.914Z,56.96
2023-01-12T01:35:12.759Z,56.39
2023-01-12T01:39:15.485Z,56.84
2023-01-12T01:43:17.365Z,56.00
2023-01-12T01:47:36.268Z,56.90
2023-01-12T01:51:36.335Z,55.88
2023-01-12T01:55:48.359Z,55.91
2023-01-12T01:59:57.857Z,55.54
2023-01-12T02:04:00.882Z,55.26
2023-01-12T02:08:11.280Z,56.15
2023-01-12T02:12:26.867Z,56.06
2023-01-12T02:16:33.293Z,55.32
2023-01-12T02:21:07.160Z,55.60
2023-01-12T02:25:58.518Z,56.00
2023-01-12T02:30:56.008Z,56.90
2023-01-12T02:35:13.074Z,55.98
2023-01-12T02:39:22.175Z,55.80
2023-01-12T02:43:30.590Z,55.81
2023-01-12T02:47:41.072Z,55.85
2023-01-12T02:51:50.846Z,56.65
2023-01-12T02:55:51.959Z,56.38
2023-01-12T02:59:54.237Z,57.04
2023-01-12T03:04:00.960Z,56.88
2023-01-12T03:08:06.986Z,56.69
2023-01-12T03:12:13.341Z,56.43
2023-01-12T03:16:17.789Z,55.40
2023-01-12T03:20:26.252Z,56.25
2023-01-12T03:24:35.380Z,55.80
2023-01-12T03:28:39.764Z,55.80
2023-01-12T03:32:40.095Z,55.93
2023-01-12T03:36:52.329Z,55.94
2023-01-12T03:41:08.481Z,56.38
2023-01-12T03:45:21.707Z,56.21
2023-01-12T03:49:33.585Z,55.69
2023-01-12T03:53:36.131Z,56.20
2023-01-12T03:57:41.355Z,55.69
2023-01-12T04:01:42.064Z,55.75
2023-01-12T04:05:44.622Z,55.31
2023-01-12T04:09:44.642Z,55.79
2023-01-12T04:13:47.271Z,55.10
2023-01-12T04:17:47.308Z,55.32
2023-01-12T04:21:59.869Z,55.01
2023-01-12T04:25:59.948Z,55.26
2023-01-12T04:30:02.659Z,55.20
2023-01-12T04:34:02.690Z,55.53
2023-01-12T04:38:10.299Z,55.83
2023-01-12T04:42:30.809Z,55.60
2023-01-12T04:46:33.565Z,54.91
2023-01-12T04:50:34.098Z,55.25
2023-01-12T04:54:34.201Z,54.79
2023-01-12T04:58:35.103Z,55.00
2023-01-12T05:02:37.780Z,54.68
2023-01-12T05:06:37.927Z,54.05
2023-01-12T05:10:38.054Z,53.88
2023-01-12T05:14:38.417Z,54.03
2023-01-12T05:18:41.327Z,53.54
2023-01-12T05:22:41.442Z,53.24
2023-01-12T05:26:42.203Z,53.48
2023-01-12T05:30:42.279Z,53.24
2023-01-12T05:34:44.880Z,52.90
2023-01-12T05:38:45.305Z,53.68
2023-01-12T05:42:57.852Z,53.66
2023-01-12T05:46:57.970Z,53.76
2023-01-12T05:51:04.078Z,53.69
2023-01-12T05:55:04.142Z,53.94
2023-01-12T05:59:06.064Z,53.67
2023-01-12T06:03:06.668Z,53.62
2023-01-12T06:07:09.317Z,53.56
2023-01-12T06:11:29.404Z,53.88
2023-01-12T06:15:29.413Z,54.29
2023-01-12T06:19:29.511Z,53.91
2023-01-12T06:23:35.334Z,53.79
2023-01-12T06:27:38.323Z,53.33
2023-01-12T06:31:38.879Z,52.83
2023-01-12T06:35:38.977Z,52.78
2023-01-12T06:39:41.626Z,53.37
2023-01-12T06:43:41.634Z,52.35
2023-01-12T06:47:49.423Z,52.04
2023-01-12T06:51:51.605Z,52.46
2023-01-12T06:55:55.589Z,52.87
2023-01-12T06:59:56.910Z,52.46
2023-01-12T07:03:57.283Z,52.37
2023-01-12T07:08:02.190Z,52.26
2023-01-12T07:12:04.944Z,52.62
2023-01-12T07:16:05.563Z,52.88
2023-01-12T07:20:05.723Z,52.10
2023-01-12T07:24:06.076Z,52.80
2023-01-12T07:28:08.827Z,52.82
2023-01-12T07:32:09.528Z,52.72
2023-01-12T07:36:10.439Z,53.30
2023-01-12T07:40:13.323Z,52.99
2023-01-12T07:44:15.950Z,52.92
2023-01-12T07:48:16.524Z,53.03
2023-01-12T07:52:17.558Z,52.98
2023-01-12T07:56:19.222Z,52.60
2023-01-12T08:00:24.387Z,52.23
2023-01-12T08:04:25.068Z,52.60
2023-01-12T08:08:25.178Z,52.35
2023-01-12T08:12:25.240Z,52.68
2023-01-12T08:16:33.959Z,51.95
2023-01-12T08:20:38.414Z,51.99
2023-01-12T08:24:47.323Z,52.46
2023-01-12T08:28:54.361Z,52.05
2023-01-12T08:33:01.268Z,51.85
2023-01-12T08:37:07.229Z,51.84
2023-01-12T08:41:20.385Z,51.18
2023-01-12T08:45:21.619Z,51.85
2023-01-12T08:49:28.405Z,52.65
2023-01-12T08:53:28.455Z,52.73
2023-01-12T08:57:28.634Z,51.20
2023-01-12T09:01:28.990Z,51.69
2023-01-12T09:05:31.659Z,50.55
2023-01-12T09:09:31.717Z,50.40
2023-01-12T09:13:31.758Z,50.40
2023-01-12T09:17:31.821Z,50.27
2023-01-12T09:21:35.287Z,50.29
2023-01-12T09:25:37.185Z,50.04
2023-01-12T09:29:37.343Z,51.11
2023-01-12T09:33:41.125Z,50.79
2023-01-12T09:37:45.041Z,50.94
2023-01-12T09:42:03.594Z,50.97
2023-01-12T09:46:16.353Z,50.81
2023-01-12T09:50:22.587Z,50.36
2023-01-12T09:54:25.491Z,49.45
2023-01-12T09:58:50.406Z,49.01
2023-01-12T10:02:56.144Z,49.15
2023-01-12T10:06:57.423Z,48.62
2023-01-12T10:11:18.315Z,49.41
2023-01-12T10:15:34.084Z,49.04
2023-01-12T10:19:47.180Z,50.50
2023-01-12T10:23:48.760Z,51.76
2023-01-12T10:27:54.291Z,53.16
2023-01-12T10:31:54.559Z,52.07
2023-01-12T10:36:02.172Z,53.80
2023-01-12T10:40:02.305Z,53.46
2023-01-12T10:44:18.466Z,55.00
2023-01-12T10:48:24.023Z,55.47
2023-01-12T10:52:42.175Z,55.21
2023-01-12T10:56:55.620Z,55.47
2023-01-12T11:00:58.969Z,55.48
2023-01-12T11:04:59.100Z,54.79
2023-01-12T11:09:00.398Z,56.11
2023-01-12T11:13:03.592Z,56.63
2023-01-12T11:17:36.758Z,57.40
2023-01-12T11:21:43.876Z,56.70
2023-01-12T11:25:49.466Z,57.07
2023-01-12T11:30:00.652Z,57.10
2023-01-12T11:34:11.209Z,57.45
2023-01-12T11:38:20.031Z,57.05
2023-01-12T11:42:40.426Z,57.53
2023-01-12T11:46:48.399Z,56.39
2023-01-12T11:50:53.569Z,55.98
2023-01-12T11:54:53.733Z,55.20
2023-01-12T11:59:05.494Z,55.73
2023-01-12T12:03:40.891Z,55.22
2023-01-12T12:08:03.253Z,56.44
2023-01-12T12:12:10.653Z,56.21
2023-01-12T12:16:29.210Z,57.36
2023-01-12T12:20:41.651Z,56.89
2023-01-12T12:25:11.774Z,57.28
2023-01-12T12:29:41.208Z,56.28
2023-01-12T12:34:09.672Z,59.41
2023-01-12T12:38:30.218Z,58.50
2023-01-12T12:43:06.718Z,58.02
2023-01-12T12:47:42.973Z,58.11
2023-01-12T12:51:44.889Z,57.81
2023-01-12T12:55:46.951Z,58.18
2023-01-12T13:00:03.238Z,58.28
2023-01-12T13:04:05.557Z,57.49
2023-01-12T13:08:06.291Z,57.37
2023-01-12T13:12:34.630Z,57.99
2023-01-12T13:16:51.879Z,57.30
2023-01-12T13:21:01.158Z,57.70
2023-01-12T13:25:03.546Z,56.28
2023-01-12T13:29:44.498Z,56.55
2023-01-12T13:33:47.204Z,56.59
2023-01-12T13:37:57.765Z,56.65
2023-01-12T13:42:11.548Z,57.25
2023-01-12T13:46:19.768Z,57.69
2023-01-12T13:50:26.669Z,58.30
2023-01-12T13:54:26.879Z,57.79
2023-01-12T13:58:27.581Z,57.21
2023-01-12T14:02:30.421Z,56.80
2023-01-12T14:06:49.429Z,55.86
2023-01-12T14:11:00.218Z,55.82
2023-01-12T14:15:39.292Z,54.74
2023-01-12T14:19:44.363Z,54.40
2023-01-12T14:23:47.072Z,54.46
2023-01-12T14:27:55.384Z,54.09
2023-01-12T14:31:57.071Z,53.49
2023-01-12T14:36:01.616Z,53.52
2023-01-12T14:40:04.721Z,53.66
2023-01-12T14:44:18.454Z,53.42
2023-01-12T14:48:32.185Z,54.37
2023-01-12T14:52:36.369Z,53.43
2023-01-12T14:56:46.041Z,53.15
2023-01-12T15:00:48.029Z,53.78
2023-01-12T15:04:57.834Z,52.72
2023-01-12T15:09:02.994Z,53.26
2023-01-12T15:13:29.100Z,53.23
2023-01-12T15:17:56.574Z,53.95
2023-01-12T15:22:09.238Z,53.94
2023-01-12T15:26:09.270Z,54.80
2023-01-12T15:30:14.928Z,54.98
2023-01-12T15:34:15.254Z,55.64
2023-01-12T15:38:17.488Z,55.37
2023-01-12T15:42:22.216Z,54.43
2023-01-12T15:46:24.883Z,54.40
2023-01-12T15:50:24.983Z,53.97
2023-01-12T15:54:25.362Z,53.62
2023-01-12T15:58:26.286Z,53.72
2023-01-12T16:02:38.134Z,53.58
2023-01-12T16:06:38.421Z,52.95
2023-01-12T16:10:58.914Z,53.30
2023-01-12T16:14:59.869Z,53.06
2023-01-12T16:19:06.038Z,52.47
2023-01-12T16:23:06.079Z,52.77
2023-01-12T16:27:06.191Z,52.45
2023-01-12T16:31:10.103Z,51.86
2023-01-12T16:35:12.820Z,52.41
2023-01-12T16:39:15.437Z,52.33
2023-01-12T16:43:20.918Z,53.01
2023-01-12T16:47:24.461Z,53.44
2023-01-12T16:51:27.985Z,54.04
2023-01-12T16:55:28.174Z,54.03
2023-01-12T16:59:30.298Z,53.85
2023-01-12T17:03:30.489Z,53.40
2023-01-12T17:07:33.884Z,52.50
2023-01-12T17:11:35.139Z,51.93
2023-01-12T17:15:37.582Z,52.61
2023-01-12T17:19:42.687Z,52.58
2023-01-12T17:23:47.061Z,51.50
2023-01-12T17:27:48.378Z,51.41
2023-01-12T17:31:49.545Z,51.92
2023-01-12T17:35:49.851Z,51.70
2023-01-12T17:39:53.059Z,51.11
2023-01-12T17:43:53.132Z,50.83
2023-01-12T17:47:53.325Z,51.56
2023-01-12T17:51:53.492Z,51.77
2023-01-12T17:55:56.748Z,51.00
2023-01-12T17:59:57.541Z,51.69
2023-01-12T18:03:58.102Z,51.21
2023-01-12T18:07:58.413Z,51.31
2023-01-12T18:12:01.469Z,51.20
2023-01-12T18:16:03.000Z,51.79
2023-01-12T18:20:04.255Z,52.25
2023-01-12T18:24:09.457Z,52.27
2023-01-12T18:28:12.321Z,51.58
2023-01-12T18:32:12.689Z,50.79
2023-01-12T18:36:17.104Z,51.31
2023-01-12T18:40:17.262Z,51.43
2023-01-12T18:44:20.793Z,51.15
2023-01-12T18:48:24.339Z,51.84
2023-01-12T18:52:36.941Z,51.44
2023-01-12T18:56:37.024Z,51.65
2023-01-12T19:00:40.439Z,51.88
2023-01-12T19:05:00.835Z,52.07
2023-01-12T19:09:13.397Z,52.21
2023-01-12T19:13:25.965Z,50.96
2023-01-12T19:17:32.953Z,50.19
2023-01-12T19:21:45.627Z,50.76
2023-01-12T19:25:58.273Z,51.53
2023-01-12T19:29:58.313Z,50.66
2023-01-12T19:34:01.027Z,49.88
2023-01-12T19:38:01.104Z,50.61
2023-01-12T19:42:13.645Z,50.90
2023-01-12T19:46:15.551Z,51.01
2023-01-12T19:50:18.512Z,51.18
2023-01-12T19:54:19.270Z,51.04
2023-01-12T19:58:21.948Z,50.58
2023-01-12T20:02:22.222Z,50.59
2023-01-12T20:06:25.203Z,50.03
2023-01-12T20:10:26.528Z,50.06
2023-01-12T20:14:26.626Z,49.58
2023-01-12T20:18:27.153Z,50.40
2023-01-12T20:22:29.853Z,50.78
2023-01-12T20:26:30.312Z,49.92
2023-01-12T20:30:37.915Z,50.59
2023-01-12T20:34:38.592Z,50.03
2023-01-12T20:38:42.290Z,50.23
2023-01-12T20:42:42.835Z,51.20
2023-01-12T20:46:43.133Z,50.63
2023-01-12T20:50:46.478Z,50.46
2023-01-12T20:54:49.317Z,50.10
2023-01-12T20:58:49.519Z,50.52
2023-01-12T21:02:49.613Z,49.93
2023-01-12T21:06:49.941Z,50.62
2023-01-12T21:10:56.854Z,49.91
2023-01-12T21:14:57.122Z,49.50
2023-01-12T21:18:57.287Z,49.77
2023-01-12T21:22:57.412Z,50.07
2023-01-12T21:27:00.257Z,50.51
2023-01-12T21:31:04.087Z,50.72
2023-01-12T21:35:04.493Z,50.74
2023-01-12T21:39:04.937Z,50.27
2023-01-12T21:43:12.448Z,50.85
2023-01-12T21:47:12.922Z,50.43
2023-01-12T21:51:16.519Z,49.97
2023-01-12T21:55:18.917Z,50.77
2023-01-12T21:59:21.713Z,50.05
2023-01-12T22:03:22.570Z,50.25
2023-01-12T22:07:22.688Z,50.11
2023-01-12T22:11:22.794Z,50.28
2023-01-12T22:15:29.427Z,49.81
2023-01-12T22:19:29.496Z,50.29
2023-01-12T22:23:29.651Z,49.57
2023-01-12T22:27:29.702Z,49.99
2023-01-12T22:31:32.539Z,49.26
2023-01-12T22:35:32.792Z,49.63
2023-01-12T22:39:32.844Z,49.92
2023-01-12T22:43:32.922Z,49.15
2023-01-12T22:47:47.707Z,49.77
2023-01-12T22:51:48.471Z,49.66
2023-01-12T22:55:49.041Z,50.20
2023-01-12T22:59:49.248Z,50.29
2023-01-12T23:03:55.521Z,50.40
2023-01-12T23:07:55.749Z,50.33
2023-01-12T23:11:55.945Z,49.21
2023-01-12T23:15:58.913Z,50.14
2023-01-12T23:20:02.356Z,49.99
2023-01-12T23:24:03.579Z,49.48
2023-01-12T23:28:04.415Z,49.14
2023-01-12T23:32:04.854Z,49.31
2023-01-12T23:36:10.983Z,49.39
2023-01-12T23:40:13.739Z,49.57
2023-01-12T23:44:14.097Z,50.85
2023-01-12T23:48:14.302Z,49.38
2023-01-12T23:52:17.250Z,50.21
2023-01-12T23:56:19.788Z,49.91
